Terminal Aerodrome Forecast
Issued by NWS Sioux Falls, SD

Home | Current Version | Previous Version | Graphics & Text | Print | Product List | Glossary On
Versions: 1 2 3 4 5 6 7 8 9 10 11 12
000
FTUS43 KFSD 031741
TAFHON
TAF
KHON 031741Z 0318/0418 16012G19KT P6SM SKC
     FM040000 14010KT P6SM SKC
     FM041600 17014G20KT P6SM BKN200=

USA.gov is the U.S. government's official web portal to all federal, state and local government web resources and services.